Time;durP1;ratioP1;P1;durP2;ratioP2;P2;SDS_P1;SDS_P2;PMS_P1;PMS_P2;Temp;Humidity;BMP_temperature;BMP_pressure;BME280_temperature;BME280_humidity;BME280_pressure;Samples;Min_cycle;Max_cycle;Signal;HPM_P1;HPM_P2
2023/09/22 00:01:02;;;;;;;10.60;8.90;;;;;;;18.65;62.41;100700.66;105479;1257;61331;-47
2023/09/22 00:03:30;;;;;;;13.80;10.00;;;;;;;18.63;62.43;100706.70;105350;1254;63666;-54
2023/09/22 00:05:57;;;;;;;11.20;9.60;;;;;;;18.59;62.44;100707.34;105337;1256;60492;-54
2023/09/22 00:08:25;;;;;;;11.40;9.30;;;;;;;18.56;62.65;100709.08;105415;1257;60357;-54
2023/09/22 00:10:53;;;;;;;14.50;10.00;;;;;;;18.53;62.66;100711.36;105513;1254;64943;-55
2023/09/22 00:13:21;;;;;;;13.60;10.00;;;;;;;18.49;62.91;100712.13;105431;1251;62402;-49
2023/09/22 00:15:49;;;;;;;12.60;8.80;;;;;;;18.49;63.15;100717.30;105440;1251;63672;-49
2023/09/22 00:18:17;;;;;;;11.00;9.00;;;;;;;18.50;63.29;100714.19;105382;1251;60555;-50
2023/09/22 00:20:45;;;;;;;13.00;9.30;;;;;;;18.52;63.53;100714.51;105419;1257;60367;-48
2023/09/22 00:23:14;;;;;;;13.30;9.50;;;;;;;18.53;63.58;100710.52;105400;1257;76440;-48
2023/09/22 00:25:44;;;;;;;14.20;10.10;;;;;;;18.52;63.60;100714.34;105351;1251;61553;-55
2023/09/22 00:28:13;;;;;;;12.50;10.20;;;;;;;18.48;63.36;100711.75;105327;1251;63836;-54
2023/09/22 00:30:41;;;;;;;15.50;10.60;;;;;;;18.43;62.93;100711.07;105454;1256;60558;-54
2023/09/22 00:33:10;;;;;;;11.40;9.50;;;;;;;18.38;62.56;100711.03;105500;1257;59655;-54
2023/09/22 00:35:38;;;;;;;12.20;9.30;;;;;;;18.33;62.28;100714.46;105497;1256;65339;-54
2023/09/22 00:38:07;;;;;;;14.10;9.60;;;;;;;18.32;62.10;100713.22;105471;1251;60481;-54
2023/09/22 00:40:34;;;;;;;12.00;10.40;;;;;;;18.33;61.57;100712.63;105280;1254;62466;-53
2023/09/22 00:43:06;;;;;;;13.20;9.70;;;;;;;18.31;61.41;100710.20;105762;1254;60526;-54
2023/09/22 00:45:40;;;;;;;13.40;10.10;;;;;;;18.28;61.30;100712.59;105706;1251;60360;-54
2023/09/22 00:48:09;;;;;;;13.50;9.20;;;;;;;18.26;61.09;100715.55;105465;1258;64996;-54
2023/09/22 00:50:37;;;;;;;11.50;9.90;;;;;;;18.23;61.09;100717.36;105729;1258;61504;-62
2023/09/22 00:53:05;;;;;;;13.90;9.50;;;;;;;18.18;60.86;100716.73;105434;1257;62474;-63
2023/09/22 00:55:32;;;;;;;12.20;9.20;;;;;;;18.14;61.00;100719.30;105108;1261;60548;-64
2023/09/22 00:58:00;;;;;;;14.30;9.90;;;;;;;18.13;60.99;100717.30;105240;1254;60561;-59
2023/09/22 01:00:27;;;;;;;14.70;9.40;;;;;;;18.15;60.77;100714.98;105475;1251;65483;-60
2023/09/22 01:02:55;;;;;;;11.80;9.60;;;;;;;18.15;60.58;100719.40;105417;1251;61651;-60
2023/09/22 01:05:23;;;;;;;16.90;10.00;;;;;;;18.12;60.57;100716.17;105422;1257;63769;-60
2023/09/22 01:07:50;;;;;;;12.20;9.60;;;;;;;18.09;60.39;100717.48;105381;1253;60558;-59
2023/09/22 01:10:19;;;;;;;15.90;10.30;;;;;;;18.09;60.35;100719.86;105361;1257;60367;-55
2023/09/22 01:12:49;;;;;;;12.00;9.60;;;;;;;18.07;60.27;100715.93;105295;1257;63710;-55
2023/09/22 01:15:17;;;;;;;12.80;9.60;;;;;;;18.05;60.43;100717.79;105499;1256;61923;-53
2023/09/22 01:17:44;;;;;;;11.50;9.20;;;;;;;18.05;60.64;100717.13;105460;1255;63840;-55
2023/09/22 01:20:12;;;;;;;13.30;9.70;;;;;;;18.09;60.70;100715.98;105380;1251;62330;-54
2023/09/22 01:22:40;;;;;;;19.30;10.20;;;;;;;18.10;60.87;100720.06;105656;1251;60491;-55
2023/09/22 01:25:08;;;;;;;16.20;9.60;;;;;;;18.08;60.73;100721.55;105401;1254;64858;-55
2023/09/22 01:27:35;;;;;;;14.10;9.60;;;;;;;18.06;60.57;100718.63;106476;1256;62260;-63
2023/09/22 01:30:04;;;;;;;12.20;9.60;;;;;;;18.04;60.47;100716.54;105734;1251;63821;-63
2023/09/22 01:32:36;;;;;;;15.80;10.30;;;;;;;18.00;60.32;100715.29;105862;1256;60562;-62
2023/09/22 01:35:07;;;;;;;14.80;10.20;;;;;;;17.95;60.14;100712.25;105304;1251;60626;-59
2023/09/22 01:37:37;;;;;;;14.20;10.30;;;;;;;17.91;60.21;100711.79;105620;1251;65014;-58
2023/09/22 01:40:08;;;;;;;11.70;8.80;;;;;;;17.92;60.08;100715.06;105586;1257;61432;-59
2023/09/22 01:42:36;;;;;;;13.40;9.70;;;;;;;17.94;59.99;100723.38;105546;1251;63717;-60
2023/09/22 01:45:05;;;;;;;13.70;10.00;;;;;;;17.92;59.95;100716.84;105381;1254;60453;-54
2023/09/22 01:47:33;;;;;;;16.00;10.00;;;;;;;17.87;60.10;100719.90;105450;1253;60539;-53
2023/09/22 01:50:01;;;;;;;12.90;9.90;;;;;;;17.84;60.22;100718.54;106154;1254;65817;-55
2023/09/22 01:52:29;;;;;;;13.40;9.00;;;;;;;17.82;59.98;100716.64;105496;1251;61344;-54
2023/09/22 01:54:56;;;;;;;12.40;9.40;;;;;;;17.79;59.65;100712.31;105510;1257;64617;-61
2023/09/22 01:57:24;;;;;;;14.90;10.30;;;;;;;17.77;59.58;100712.56;106099;1251;60526;-62
2023/09/22 01:59:52;;;;;;;13.10;9.60;;;;;;;17.74;59.77;100714.06;105411;1257;60504;-66
2023/09/22 02:02:19;;;;;;;11.00;8.80;;;;;;;17.75;59.68;100716.15;105202;1251;65517;-62
2023/09/22 02:04:47;;;;;;;17.10;9.90;;;;;;;17.78;59.52;100712.46;106058;1257;61567;-67
2023/09/22 02:07:15;;;;;;;11.80;9.90;;;;;;;17.79;59.36;100710.20;105557;1253;63798;-52
2023/09/22 02:09:43;;;;;;;12.30;9.60;;;;;;;17.77;59.66;100707.23;105399;1254;61535;-56
2023/09/22 02:12:11;;;;;;;14.10;10.10;;;;;;;17.75;59.87;100708.49;107064;1257;60370;-57
2023/09/22 02:14:38;;;;;;;14.50;10.40;;;;;;;17.72;59.89;100713.59;106326;1251;64880;-56
2023/09/22 02:17:06;;;;;;;11.70;10.20;;;;;;;17.69;59.87;100709.98;105724;1251;61354;-55
2023/09/22 02:19:38;;;;;;;10.80;9.00;;;;;;;17.68;60.01;100711.74;105956;1251;63568;-57
2023/09/22 02:22:05;;;;;;;13.60;9.00;;;;;;;17.69;60.18;100710.94;105857;1254;60510;-60
2023/09/22 02:24:33;;;;;;;11.80;9.60;;;;;;;17.72;60.17;100710.05;105855;1257;60841;-61
2023/09/22 02:27:02;;;;;;;12.00;10.00;;;;;;;17.72;60.12;100711.95;105497;1251;64939;-58
2023/09/22 02:29:29;;;;;;;12.50;9.80;;;;;;;17.72;60.17;100712.71;105432;1256;61377;-51
2023/09/22 02:31:57;;;;;;;14.00;9.70;;;;;;;17.70;60.08;100712.54;105704;1254;63743;-55
2023/09/22 02:34:25;;;;;;;13.80;9.20;;;;;;;17.68;60.13;100713.65;105411;1254;60606;-56
2023/09/22 02:36:53;;;;;;;15.30;9.60;;;;;;;17.63;60.20;100713.13;105513;1256;60508;-56
2023/09/22 02:39:20;;;;;;;12.60;8.90;;;;;;;17.58;60.33;100713.46;105888;1251;63611;-57
2023/09/22 02:41:48;;;;;;;13.10;8.70;;;;;;;17.52;60.22;100712.08;105462;1257;61390;-57
2023/09/22 02:44:15;;;;;;;13.50;9.20;;;;;;;17.52;59.99;100712.28;105298;1257;64337;-58
2023/09/22 02:46:43;;;;;;;14.00;9.00;;;;;;;17.52;59.92;100709.05;105696;1256;60366;-56
2023/09/22 02:49:11;;;;;;;13.80;9.40;;;;;;;17.51;59.99;100710.14;105402;1257;60351;-55
2023/09/22 02:51:38;;;;;;;11.80;9.20;;;;;;;17.50;60.06;100708.84;105366;1257;64979;-54
2023/09/22 02:54:06;;;;;;;14.00;9.10;;;;;;;17.48;60.29;100712.20;105369;1251;61994;-55
2023/09/22 02:56:34;;;;;;;13.00;9.00;;;;;;;17.46;60.26;100714.71;105263;1257;63714;-65
2023/09/22 02:59:01;;;;;;;10.90;9.80;;;;;;;17.41;60.39;100716.95;105321;1253;60449;-58
2023/09/22 03:01:29;;;;;;;12.00;8.60;;;;;;;17.38;60.38;100716.24;105402;1256;60456;-54
2023/09/22 03:03:56;;;;;;;13.20;8.60;;;;;;;17.37;60.17;100717.44;105976;1252;65088;-54
2023/09/22 03:06:24;;;;;;;17.70;9.30;;;;;;;17.38;59.98;100719.98;105266;1251;61302;-55
2023/09/22 03:08:52;;;;;;;14.10;10.00;;;;;;;17.37;60.00;100721.32;105298;1254;63815;-54
2023/09/22 03:11:19;;;;;;;11.80;9.80;;;;;;;17.34;59.87;100722.55;105355;1257;60495;-55
2023/09/22 03:13:48;;;;;;;12.80;9.00;;;;;;;17.30;59.87;100719.69;105523;1251;61042;-54
2023/09/22 03:16:15;;;;;;;17.20;9.60;;;;;;;17.26;59.94;100721.20;105380;1252;64890;-54
2023/09/22 03:18:43;;;;;;;15.30;9.70;;;;;;;17.21;59.95;100726.43;106307;1257;60406;-55
2023/09/22 03:21:12;;;;;;;11.80;9.20;;;;;;;17.19;59.99;100728.45;105693;1253;63664;-55
2023/09/22 03:23:39;;;;;;;12.80;8.40;;;;;;;17.16;60.01;100727.46;105553;1254;60550;-55
2023/09/22 03:26:07;;;;;;;13.20;9.00;;;;;;;17.19;60.02;100726.88;105352;1254;60456;-53
2023/09/22 03:28:34;;;;;;;11.30;8.70;;;;;;;17.22;59.97;100728.10;105356;1254;64893;-55
2023/09/22 03:31:03;;;;;;;13.10;9.70;;;;;;;17.23;59.75;100733.32;105095;1254;61575;-54
2023/09/22 03:33:31;;;;;;;11.50;9.10;;;;;;;17.22;59.81;100741.23;105814;1251;64375;-56
2023/09/22 03:35:59;;;;;;;14.00;9.40;;;;;;;17.21;59.57;100739.89;105232;1254;60654;-56
2023/09/22 03:38:28;;;;;;;17.50;10.60;;;;;;;17.19;59.64;100739.58;105086;1253;60518;-54
2023/09/22 03:41:00;;;;;;;13.40;10.50;;;;;;;17.17;59.56;100739.14;105429;1257;64946;-54
2023/09/22 03:43:28;;;;;;;14.10;10.10;;;;;;;17.15;59.59;100740.60;105831;1251;62030;-56
2023/09/22 03:45:56;;;;;;;13.50;9.10;;;;;;;17.13;59.47;100740.48;105311;1258;63774;-48
2023/09/22 03:48:24;;;;;;;13.60;9.10;;;;;;;17.13;59.36;100745.23;105871;1254;60459;-54
2023/09/22 03:50:56;;;;;;;12.30;9.20;;;;;;;17.15;59.40;100745.90;105341;1253;60355;-55
2023/09/22 03:53:23;;;;;;;13.90;10.30;;;;;;;17.15;59.46;100750.55;105426;1257;64938;-55
2023/09/22 03:55:51;;;;;;;11.40;9.50;;;;;;;17.13;59.71;100750.52;105944;1257;60486;-54
2023/09/22 03:58:20;;;;;;;12.10;9.00;;;;;;;17.12;59.84;100749.60;105167;1257;62472;-55
2023/09/22 04:00:48;;;;;;;12.90;9.40;;;;;;;17.09;59.89;100751.42;105509;1254;60590;-55
2023/09/22 04:03:18;;;;;;;13.60;9.60;;;;;;;17.07;60.03;100752.38;105137;1253;60447;-54
2023/09/22 04:05:46;;;;;;;11.60;9.00;;;;;;;17.07;60.08;100749.55;105520;1251;63838;-54
2023/09/22 04:08:14;;;;;;;13.10;8.50;;;;;;;17.11;60.15;100755.31;106335;1254;61356;-54
2023/09/22 04:10:41;;;;;;;11.50;9.00;;;;;;;17.15;60.15;100750.32;105328;1251;62617;-54
2023/09/22 04:13:09;;;;;;;17.50;10.20;;;;;;;17.16;60.19;100752.52;105070;1256;60460;-53
2023/09/22 04:15:36;;;;;;;12.50;9.70;;;;;;;17.17;60.34;100752.21;105230;1253;60440;-54
2023/09/22 04:18:04;;;;;;;14.90;9.50;;;;;;;17.20;60.50;100755.18;105182;1254;63618;-55
2023/09/22 04:20:35;;;;;;;12.80;9.00;;;;;;;17.21;60.62;100757.64;105598;1256;64508;-55
2023/09/22 04:23:04;;;;;;;12.90;10.20;;;;;;;17.23;60.56;100757.13;105191;1251;63747;-55
2023/09/22 04:25:34;;;;;;;14.00;9.10;;;;;;;17.24;60.43;100759.13;106313;1254;60482;-55
2023/09/22 04:28:09;;;;;;;13.30;9.00;;;;;;;17.30;60.27;100755.94;105791;1251;60386;-55
2023/09/22 04:30:38;;;;;;;14.70;9.60;;;;;;;17.37;60.30;100758.02;105772;1256;65000;-59
2023/09/22 04:33:06;;;;;;;14.60;9.60;;;;;;;17.40;60.30;100760.11;105609;1256;61307;-58
2023/09/22 04:35:34;;;;;;;12.90;9.10;;;;;;;17.43;60.32;100762.33;106445;1254;64043;-62
2023/09/22 04:38:02;;;;;;;17.30;10.70;;;;;;;17.46;60.29;100766.13;105373;1251;60416;-58
2023/09/22 04:40:36;;;;;;;14.40;10.40;;;;;;;17.49;60.40;100766.56;106488;1253;60358;-60
2023/09/22 04:43:07;;;;;;;12.10;9.00;;;;;;;17.51;60.37;100765.65;106333;1254;63675;-61
2023/09/22 04:45:42;;;;;;;10.50;8.70;;;;;;;17.53;60.51;100770.21;106320;1251;61396;-62
2023/09/22 04:48:11;;;;;;;16.80;9.30;;;;;;;17.57;60.42;100768.54;105021;1257;63812;-64
2023/09/22 04:50:38;;;;;;;16.50;9.90;;;;;;;17.62;60.28;100771.19;109340;1251;59966;-62
2023/09/22 04:53:06;;;;;;;11.70;9.40;;;;;;;17.67;60.41;100773.21;109230;1254;60396;-59
2023/09/22 04:55:37;;;;;;;15.90;10.40;;;;;;;17.71;60.51;100774.15;109268;1251;63634;-55
2023/09/22 04:58:08;;;;;;;11.50;8.90;;;;;;;17.76;60.63;100773.97;109339;1251;60392;-59
2023/09/22 05:00:37;;;;;;;14.70;10.10;;;;;;;17.80;60.69;100775.72;107395;1256;62760;-54
2023/09/22 05:03:05;;;;;;;11.60;8.60;;;;;;;17.83;60.67;100774.89;109014;1252;60763;-56
2023/09/22 05:05:33;;;;;;;11.20;8.80;;;;;;;17.89;60.58;100771.33;105343;1251;60530;-63
2023/09/22 05:08:01;;;;;;;12.70;9.00;;;;;;;17.98;60.57;100769.93;105918;1252;73043;-62
2023/09/22 05:10:31;;;;;;;15.50;9.00;;;;;;;18.05;60.44;100768.08;105372;1251;61457;-62
2023/09/22 05:12:59;;;;;;;12.90;9.30;;;;;;;18.08;60.42;100768.95;105889;1253;72635;-60
2023/09/22 05:15:28;;;;;;;14.70;9.60;;;;;;;18.13;60.38;100770.03;109158;1251;58462;-61
2023/09/22 05:17:56;;;;;;;15.50;9.30;;;;;;;18.17;60.21;100770.61;105398;1256;60452;-67
2023/09/22 05:20:24;;;;;;;14.20;8.80;;;;;;;18.21;60.16;100773.41;105244;1251;66972;-67
2023/09/22 05:22:52;;;;;;;11.40;8.10;;;;;;;18.26;59.69;100770.73;105593;1251;61525;-66
2023/09/22 05:25:19;;;;;;;13.60;8.90;;;;;;;18.32;59.34;100771.20;105335;1253;63685;-60
2023/09/22 05:27:48;;;;;;;14.50;9.60;;;;;;;18.35;59.19;100771.20;105253;1253;60622;-63
2023/09/22 05:30:15;;;;;;;11.60;8.60;;;;;;;18.39;59.27;100774.14;105406;1256;60393;-63
2023/09/22 05:32:43;;;;;;;16.10;9.80;;;;;;;18.43;59.14;100776.63;105216;1253;63621;-58
2023/09/22 05:35:11;;;;;;;13.60;10.40;;;;;;;18.49;59.01;100780.63;105647;1251;69947;-57
2023/09/22 05:37:38;;;;;;;15.40;10.00;;;;;;;18.51;58.90;100780.13;105366;1254;63942;-58
2023/09/22 05:40:12;;;;;;;15.10;10.30;;;;;;;18.54;58.81;100775.57;105580;1251;60955;-72
2023/09/22 05:42:47;;;;;;;13.60;10.20;;;;;;;18.57;58.71;100782.70;105885;1257;60421;-69
2023/09/22 05:45:18;;;;;;;12.90;9.10;;;;;;;18.63;58.69;100780.85;105435;1251;64949;-65
2023/09/22 05:47:46;;;;;;;15.00;9.10;;;;;;;18.69;58.60;100778.54;106073;1251;61345;-67
2023/09/22 05:50:13;;;;;;;16.10;10.20;;;;;;;18.78;58.61;100780.09;109316;1251;66642;-60
2023/09/22 05:52:41;;;;;;;14.80;10.50;;;;;;;18.88;58.55;100782.66;109246;1252;58379;-61
2023/09/22 05:55:11;;;;;;;16.20;10.30;;;;;;;18.96;58.21;100782.45;109279;1252;58468;-63
2023/09/22 05:57:38;;;;;;;15.40;10.80;;;;;;;19.02;58.04;100784.95;109251;1254;64241;-59
2023/09/22 06:00:16;;;;;;;20.20;14.20;;;;;;;19.08;57.96;100784.48;109201;1253;60096;-60
2023/09/22 06:02:50;;;;;;;19.40;14.50;;;;;;;19.15;58.11;100786.10;109292;1251;64229;-57
2023/09/22 06:05:22;;;;;;;23.20;14.80;;;;;;;19.27;58.19;100788.67;107710;1256;60558;-55
2023/09/22 06:07:50;;;;;;;18.90;12.90;;;;;;;19.42;58.19;100794.69;105216;1257;60462;-51
2023/09/22 06:10:18;;;;;;;17.70;13.80;;;;;;;19.53;57.85;100797.59;105310;1253;64923;-49
2023/09/22 06:12:45;;;;;;;16.80;11.20;;;;;;;19.60;57.69;100797.76;105130;1251;61323;-48
2023/09/22 06:15:13;;;;;;;14.40;9.20;;;;;;;19.67;57.24;100800.17;105296;1254;63762;-48
2023/09/22 06:17:40;;;;;;;19.10;10.00;;;;;;;19.76;56.71;100802.27;105251;1254;60560;-48
2023/09/22 06:20:15;;;;;;;19.10;8.40;;;;;;;19.84;56.49;100802.79;105230;1253;60391;-46
2023/09/22 06:22:44;;;;;;;;;;;;;;;19.94;56.50;100803.34;109187;1251;65434;-49
2023/09/22 06:25:13;;;;;;;11.50;8.50;;;;;;;20.00;56.32;100804.85;109266;1251;61847;-46
2023/09/22 06:27:43;;;;;;;13.90;9.10;;;;;;;20.07;56.01;100809.29;109289;1252;63347;-44
2023/09/22 06:30:11;;;;;;;10.90;7.60;;;;;;;20.16;55.90;100810.70;109288;1254;58497;-50
2023/09/22 06:32:40;;;;;;;12.50;7.70;;;;;;;20.32;55.71;100808.25;109339;1251;58305;-47
2023/09/22 06:35:11;;;;;;;13.30;8.00;;;;;;;20.48;55.12;100811.02;109187;1253;64921;-60
2023/09/22 06:37:41;;;;;;;12.70;7.40;;;;;;;20.62;54.10;100808.52;109205;1251;61356;-53
2023/09/22 06:40:13;;;;;;;14.40;7.60;;;;;;;20.75;53.22;100812.91;109315;1251;66143;-54
2023/09/22 06:42:41;;;;;;;12.00;7.40;;;;;;;20.86;52.29;100816.58;109312;1251;58426;-53
2023/09/22 06:45:09;;;;;;;14.20;7.60;;;;;;;20.99;52.01;100818.89;109369;1253;58229;-50
2023/09/22 06:47:38;;;;;;;14.60;7.30;;;;;;;21.11;51.67;100815.63;109257;1251;63964;-54
2023/09/22 06:50:08;;;;;;;11.40;7.70;;;;;;;21.22;51.38;100807.21;105674;1256;60414;-53
2023/09/22 06:52:36;;;;;;;12.50;7.30;;;;;;;21.31;51.01;100803.63;105672;1254;63672;-56
2023/09/22 06:55:08;;;;;;;11.60;7.30;;;;;;;21.40;50.54;100805.48;105746;1255;60546;-54
2023/09/22 06:57:40;;;;;;;13.00;6.90;;;;;;;21.47;50.11;100808.15;105752;1253;60347;-54
2023/09/22 07:00:16;;;;;;;10.10;7.10;;;;;;;21.54;50.00;100808.74;105663;1252;63645;-53
2023/09/22 07:02:47;;;;;;;15.20;7.50;;;;;;;21.60;49.35;100806.89;106427;1251;60454;-50
2023/09/22 07:05:16;;;;;;;11.70;6.70;;;;;;;21.62;48.95;100807.50;105386;1257;62899;-53
2023/09/22 07:07:43;;;;;;;11.30;7.20;;;;;;;21.63;48.70;100806.48;105588;1251;60622;-54
2023/09/22 07:10:11;;;;;;;12.10;8.10;;;;;;;21.65;48.26;100807.66;105402;1257;60442;-54
2023/09/22 07:12:41;;;;;;;12.50;7.50;;;;;;;21.69;48.36;100807.88;105758;1251;64899;-53
2023/09/22 07:15:10;;;;;;;12.20;6.60;;;;;;;21.73;48.71;100809.71;106358;1254;63571;-52
2023/09/22 07:17:40;;;;;;;9.30;6.50;;;;;;;21.79;48.98;100806.20;105418;1254;64216;-55
2023/09/22 07:20:13;;;;;;;11.50;7.50;;;;;;;21.85;49.00;100805.38;105427;1252;60564;-54
2023/09/22 07:22:42;;;;;;;12.50;6.90;;;;;;;21.91;48.97;100805.73;105825;1254;60444;-50
2023/09/22 07:25:09;;;;;;;19.00;8.00;;;;;;;21.96;49.40;100806.75;105264;1251;64947;-53
2023/09/22 07:27:39;;;;;;;11.60;7.20;;;;;;;22.01;49.63;100808.13;105158;1256;61363;-63
2023/09/22 07:30:09;;;;;;;12.20;7.30;;;;;;;22.06;49.85;100809.09;105584;1253;63791;-64
2023/09/22 07:32:40;;;;;;;12.00;6.70;;;;;;;22.12;49.80;100808.45;105687;1253;60475;-64
2023/09/22 07:35:08;;;;;;;10.70;6.70;;;;;;;22.14;49.44;100809.13;105611;1256;60364;-62
2023/09/22 07:37:36;;;;;;;12.20;6.60;;;;;;;22.15;49.75;100811.79;105348;1254;65380;-62
2023/09/22 07:40:08;;;;;;;10.30;6.60;;;;;;;22.18;49.73;100812.28;105437;1253;60437;-63
2023/09/22 07:42:38;;;;;;;12.10;6.40;;;;;;;22.22;48.79;100809.61;105682;1257;62717;-62
2023/09/22 07:45:07;;;;;;;11.60;6.00;;;;;;;22.28;48.33;100808.08;105316;1251;61594;-61
2023/09/22 07:47:34;;;;;;;8.90;6.40;;;;;;;22.34;48.39;100807.66;106428;1251;61546;-63
2023/09/22 07:50:06;;;;;;;10.40;6.00;;;;;;;22.41;48.48;100807.54;105597;1251;64918;-63
2023/09/22 07:52:34;;;;;;;11.60;6.20;;;;;;;22.48;48.42;100808.50;105601;1251;61436;-64
2023/09/22 07:55:02;;;;;;;14.60;6.50;;;;;;;22.54;48.29;100805.79;105220;1253;68322;-65
2023/09/22 07:57:31;;;;;;;10.50;6.20;;;;;;;22.58;47.68;100804.39;105820;1253;60370;-63
2023/09/22 07:59:58;;;;;;;11.70;6.20;;;;;;;22.64;47.80;100807.42;105130;1257;61092;-63
2023/09/22 08:02:26;;;;;;;9.80;5.60;;;;;;;22.69;47.49;100807.44;105063;1251;64923;-65
2023/09/22 08:04:56;;;;;;;9.00;4.80;;;;;;;22.75;47.49;100804.85;105232;1251;61393;-66
2023/09/22 08:07:24;;;;;;;9.20;5.70;;;;;;;22.82;47.15;100801.68;105132;1255;64877;-65
2023/09/22 08:09:52;;;;;;;12.00;5.60;;;;;;;22.88;47.24;100801.15;105044;1256;265235;-64
2023/09/22 08:14:21;;;;;;;11.40;5.90;;;;;;;22.84;48.09;100794.85;101852;1298;601178;-62
2023/09/22 08:16:49;;;;;;;12.40;5.40;;;;;;;23.06;46.69;100792.06;104031;1267;59510;-63
2023/09/22 08:19:17;;;;;;;10.30;5.20;;;;;;;23.15;46.77;100787.60;106847;1271;59361;-62
2023/09/22 08:21:46;;;;;;;9.50;5.50;;;;;;;23.21;46.90;100786.61;104132;1267;65258;-63
2023/09/22 08:24:15;;;;;;;8.60;5.00;;;;;;;23.26;47.04;100789.75;104296;1267;61452;-57
2023/09/22 08:26:44;;;;;;;8.40;4.70;;;;;;;23.32;46.99;100786.69;104008;1278;286891;-56
2023/09/22 08:29:12;;;;;;;10.90;5.00;;;;;;;23.39;47.22;100784.74;104482;1270;60004;-56
2023/09/22 08:31:39;;;;;;;8.40;4.90;;;;;;;23.47;47.23;100788.01;104626;1264;62576;-57
2023/09/22 08:34:07;;;;;;;8.90;4.70;;;;;;;23.55;47.22;100784.96;104243;1270;72269;-56
2023/09/22 08:36:35;;;;;;;9.40;4.90;;;;;;;23.65;46.90;100783.11;104710;1270;62459;-55
2023/09/22 08:39:02;;;;;;;9.80;4.40;;;;;;;23.75;46.54;100780.42;104469;1266;62492;-54
2023/09/22 08:41:32;;;;;;;9.20;4.90;;;;;;;23.82;45.66;100777.58;104136;1263;59606;-55
2023/09/22 08:43:59;;;;;;;11.00;4.70;;;;;;;23.87;45.38;100776.88;104408;1269;59711;-55
2023/09/22 08:46:27;;;;;;;8.10;5.20;;;;;;;23.95;45.25;100777.14;105629;1257;64135;-54
2023/09/22 08:48:55;;;;;;;9.90;5.20;;;;;;;24.01;44.97;100775.59;105710;1257;61371;-57
2023/09/22 08:51:23;;;;;;;8.50;5.60;;;;;;;24.07;45.42;100771.84;105638;1257;63897;-55
2023/09/22 08:53:53;;;;;;;9.70;5.20;;;;;;;24.12;45.65;100769.55;104879;1261;59524;-55
2023/09/22 08:56:24;;;;;;;12.90;5.00;;;;;;;24.18;45.77;100767.66;105004;1257;59733;-56
2023/09/22 08:58:51;;;;;;;8.50;4.10;;;;;;;24.26;45.15;100763.04;104784;1261;62848;-56
2023/09/22 09:01:19;;;;;;;9.00;4.60;;;;;;;24.36;44.17;100766.77;104871;1257;61531;-55
2023/09/22 09:03:48;;;;;;;12.20;4.40;;;;;;;24.45;43.65;100766.70;105113;1263;62541;-57
2023/09/22 09:06:18;;;;;;;9.80;4.30;;;;;;;24.54;43.18;100763.61;105223;1257;59725;-55
2023/09/22 09:09:04;;;;;;;8.20;4.30;;;;;;;24.63;42.80;100759.67;105155;1257;59737;-55
2023/09/22 09:11:32;;;;;;;7.00;4.00;;;;;;;24.74;42.27;100763.15;105023;1260;66431;-55
2023/09/22 09:14:03;;;;;;;10.60;4.90;;;;;;;24.83;42.37;100764.36;104984;1260;61334;-55
2023/09/22 09:16:32;;;;;;;7.60;4.70;;;;;;;24.92;42.79;100763.50;104773;1263;62731;-55
2023/09/22 09:19:16;;;;;;;10.30;4.90;;;;;;;25.01;42.39;100765.36;105559;1260;59736;-54
2023/09/22 09:22:05;;;;;;;9.30;4.80;;;;;;;25.09;42.44;100763.98;104814;1263;59719;-54
2023/09/22 09:24:33;;;;;;;7.80;4.20;;;;;;;25.15;42.06;100758.91;108825;1256;63079;-53
2023/09/22 09:27:00;;;;;;;8.10;4.90;;;;;;;25.23;42.07;100757.95;106113;1258;72138;-54
2023/09/22 09:29:28;;;;;;;10.60;5.30;;;;;;;25.30;42.40;100758.39;105017;1257;64103;-54
2023/09/22 09:32:00;;;;;;;11.60;4.70;;;;;;;25.39;42.83;100756.63;105563;1262;59636;-55
2023/09/22 09:34:39;;;;;;;9.80;4.90;;;;;;;25.48;42.75;100756.89;104992;1260;59730;-55
2023/09/22 09:37:13;;;;;;;14.30;5.50;;;;;;;25.56;42.46;100758.64;106232;1257;64599;-55
2023/09/22 09:39:48;;;;;;;9.30;4.90;;;;;;;25.64;42.09;100757.36;105310;1257;61293;-55
2023/09/22 09:42:18;;;;;;;;;;;;;;;25.71;42.33;100756.76;104958;1260;62449;-56
2023/09/22 09:44:54;;;;;;;8.90;5.20;;;;;;;25.78;42.35;100755.77;105114;1261;59766;-55
2023/09/22 09:47:24;;;;;;;7.70;5.30;;;;;;;25.83;41.69;100757.83;105216;1257;60370;-54
2023/09/22 09:49:57;;;;;;;16.60;6.10;;;;;;;25.85;41.27;100756.78;104870;1260;66368;-57
2023/09/22 09:52:55;;;;;;;8.10;4.90;;;;;;;25.86;41.46;100759.84;105443;1261;71368;-55
2023/09/22 09:55:24;;;;;;;8.10;5.20;;;;;;;25.87;41.61;100757.77;105068;1260;73636;-54
2023/09/22 09:57:53;;;;;;;9.50;5.50;;;;;;;25.90;41.49;100758.25;104823;1257;59747;-62
2023/09/22 10:00:21;;;;;;;10.10;5.50;;;;;;;25.95;41.57;100756.45;104825;1257;59807;-66
2023/09/22 10:02:50;;;;;;;11.00;5.50;;;;;;;26.00;41.41;100756.48;104976;1257;75232;-53
2023/09/22 10:05:19;;;;;;;8.00;5.40;;;;;;;26.03;40.94;100756.02;104956;1260;60339;-53
2023/09/22 10:07:49;;;;;;;9.00;4.70;;;;;;;26.07;40.65;100753.04;104963;1260;63800;-60
2023/09/22 10:10:21;;;;;;;8.80;5.20;;;;;;;26.12;40.80;100757.77;104627;1257;59701;-53
2023/09/22 10:12:49;;;;;;;7.80;4.60;;;;;;;26.21;40.75;100756.52;105691;1257;59654;-53
2023/09/22 10:15:16;;;;;;;9.60;5.40;;;;;;;26.33;40.36;100754.27;104806;1261;75311;-53
2023/09/22 10:17:46;;;;;;;10.30;5.70;;;;;;;26.43;40.36;100750.82;104502;1257;62245;-58
2023/09/22 10:20:14;;;;;;;6.60;4.40;;;;;;;26.52;40.12;100751.37;104768;1263;65896;-55
2023/09/22 10:22:42;;;;;;;8.90;4.70;;;;;;;26.57;39.87;100745.23;104578;1261;59910;-55
2023/09/22 10:25:12;;;;;;;8.60;4.00;;;;;;;26.59;39.63;100749.23;104735;1257;59688;-55
2023/09/22 10:28:01;;;;;;;12.40;5.00;;;;;;;26.58;40.05;100749.34;108820;1257;75737;-56
2023/09/22 10:30:43;;;;;;;10.30;5.00;;;;;;;26.59;40.18;100748.91;106947;1257;73631;-54
2023/09/22 10:33:25;;;;;;;19.60;6.20;;;;;;;26.60;40.18;100745.08;104607;1257;62858;-56
2023/09/22 10:35:53;;;;;;;8.40;4.50;;;;;;;26.67;40.49;100741.11;108855;1257;57725;-57
2023/09/22 10:38:21;;;;;;;9.30;4.80;;;;;;;26.75;40.26;100740.13;108923;1256;57647;-58
2023/09/22 10:40:58;;;;;;;7.20;4.30;;;;;;;26.83;39.67;100741.64;104843;1261;62922;-48
2023/09/22 10:43:29;;;;;;;8.30;5.00;;;;;;;26.94;39.66;100737.62;104866;1260;60457;-54
2023/09/22 10:45:56;;;;;;;7.90;4.40;;;;;;;27.04;39.73;100734.54;104670;1261;63722;-55
2023/09/22 10:48:24;;;;;;;6.90;4.90;;;;;;;27.15;39.37;100735.09;104627;1257;59856;-53
2023/09/22 10:50:53;;;;;;;8.10;4.70;;;;;;;27.27;39.31;100733.89;104695;1258;59673;-57
2023/09/22 10:53:21;;;;;;;12.80;5.50;;;;;;;27.38;39.14;100735.02;105035;1260;64567;-55
2023/09/22 10:55:49;;;;;;;8.70;5.00;;;;;;;27.45;39.31;100733.89;104973;1260;71489;-59
2023/09/22 10:58:21;;;;;;;10.60;5.50;;;;;;;27.53;39.19;100730.69;105580;1263;64513;-56
2023/09/22 11:00:56;;;;;;;9.90;4.90;;;;;;;27.59;38.93;100734.06;105626;1260;59840;-55
2023/09/22 11:03:24;;;;;;;;;;;;;;;27.66;38.63;100738.52;105549;1261;59650;-57
2023/09/22 11:06:10;;;;;;;10.40;5.00;;;;;;;27.68;38.64;100737.61;105408;1256;64728;-56
2023/09/22 11:08:48;;;;;;;;;;;;;;;27.71;38.54;100731.79;105076;1258;61328;-55
2023/09/22 11:11:17;;;;;;;8.70;4.20;;;;;;;27.75;38.60;100733.98;105126;1257;64025;-55
2023/09/22 11:13:54;;;;;;;7.40;4.60;;;;;;;27.76;38.23;100732.48;105125;1259;59982;-56
2023/09/22 11:16:22;;;;;;;6.60;4.70;;;;;;;27.70;38.59;100727.81;105865;1257;59698;-58
2023/09/22 11:18:50;;;;;;;10.60;5.00;;;;;;;27.64;38.85;100725.61;105206;1260;62987;-55
2023/09/22 11:21:20;;;;;;;11.50;4.60;;;;;;;27.63;38.47;100725.08;104541;1263;60095;-54